x

Halibut Bank (46146) Wave Buoy

10:00 - Sat 23rd Jul 2016 All times are PDT. -7 hours from GMT.

  • Sig Wave height 0.7ft
  • Peak Period 2s
  • Wind
    7mph, 9mph gusts
  • Sea Temp 69°f
  • Air Temp 68°f
  • Sea Pressure 1022.2mb
  • Halibut Bank
  • Halibut Bank

More Historic Weather Station data

Upgrade to MSW Pro to gain access to the past 30 days of data for over 8000 Wavebouys and Weather Stations around the globe.

Join Pro

Comparision Forecast

View Surf forecast
   
sam. 07/23 10:00 0.7ft 2s 7 9 mph 1022.2mb 69f 68f
9:00 0.3ft 2s 9
mph
1022.2mb 70f 68f
8:00 0.7ft 6s 9
mph
1022.2mb 70f 68f
7:00 0.3ft 3s 7 9 mph 1022.5mb 71f 68f
6:00 0.3ft 3s 7
mph
1022.8mb 70f 68f
5:00 0.3ft 3s 7
mph
1023.6mb 72f 67f
4:00 0.3ft 3s 7
mph
1024.1mb 71f 67f
3:00 0.7ft 3s 4 7 mph 1024.4mb 73f 66f
2:00 0.7ft 3s  -  2 mph 1024.5mb 71f 66f
1:00 0.7ft 3s 2
mph
1024.7mb 70f 64f
12:00 0.7ft 2s 2 4 mph 1024.9mb 68f 64f
11:00 0.7ft 3s 4
mph
1024.8mb 67f 63f
10:00 0.7ft 3s 4 7 mph 1024.5mb 67f 62f
9:00 1ft 3s 7 9 mph 1024.5mb 68f 62f
8:00 1.3ft 3s 7 9 mph 1024.1mb 68f 62f
7:00 1.3ft 3s 9 11 mph 1023.6mb 68f 62f
6:00 1.3ft 3s 13 16 mph 1023.5mb 68f 62f
5:00 1.3ft 3s 13 16 mph 1023.3mb 68f 63f
4:00 1.6ft 3s 13 16 mph 1023.4mb 69f 63f
3:00 2ft 3s 16 18 mph 1023.2mb 68f 64f
2:00 1.3ft 3s 18 20 mph 1023.2mb 69f 64f
1:00 1ft 3s 18 20 mph 1023mb 69f 65f
12:00 1ft 3s 7 9 mph 1022.9mb 69f 68f
ven. 07/22 11:00 0.7ft 2s 9 13 mph 1022.7mb 70f 68f
10:00 1ft 3s 4 9 mph 1022.5mb 70f 69f
9:00 1ft 3s 2 4 mph 1022.1mb 70f 69f
8:00 1.3ft 3s 9 11 mph 1021.9mb 70f 69f
7:00 1.3ft 3s 9 11 mph 1021.8mb 70f 69f
6:00 1ft 3s 9 11 mph 1022.1mb 70f 68f
5:00 1ft 3s 7 9 mph 1022.5mb 69f 68f
4:00 1ft 3s 9
mph
1022.7mb 69f 68f
3:00 1.3ft 3s 9 11 mph 1022.9mb 68f 68f
2:00 1.3ft 3s 13
mph
1022.8mb 68f 67f
1:00 1.3ft 4s 13
mph
1022.7mb 68f 67f
12:00 1.3ft 3s 11 13 mph 1022.3mb 68f 66f
11:00 1.6ft 3s 9 11 mph 1021.8mb 68f 65f
10:00 2ft 3s 9 11 mph 1021.2mb 67f 64f
9:00 2.5ft 4s 11 13 mph 1020.9mb 68f 64f
8:00 2ft 3s 11 16 mph 1020.5mb 68f 64f
7:00 1.6ft 3s 16 20 mph 1019.7mb 68f 64f
6:00 1.6ft 3s 4 9 mph 1019mb 68f 66f
5:00 1ft 3s 9 11 mph 1018.2mb 68f 67f
4:00 0.3ft 2s 4 7 mph 1018mb 68f 67f
3:00 0.3ft 2s 4
mph
1017.7mb 67f 67f
2:00 0.3ft 2s 4 7 mph 1017.4mb 67f 67f
1:00 0.3ft 2s 7
mph
1017mb 67f 68f
12:00 0.3ft 3s 4
mph
1016.9mb 67f 69f
jeu. 07/21 11:00 0.3ft 3s 2 4 mph 1016.6mb 68f 70f
10:00 0.3ft 3s 7 9 mph 1016mb 69f 71f
9:00 0.7ft 2s 4
mph
1015.3mb 69f 71f
8:00 0.7ft 2s 7
mph
1015mb 69f 71f
7:00 1ft 3s 9
mph
1015.3mb 70f 70f
6:00 1ft 3s 11
mph
1015.7mb 68f 70f
5:00 1ft 3s 11 13 mph 1016.1mb 69f 70f
4:00 0.7ft 3s 11 13 mph 1016.8mb 68f 69f
3:00 1ft 3s 11 13 mph 1017.6mb 68f 68f
2:00 1ft 3s 11 13 mph 1017.9mb 68f 67f
1:00 1ft 3s 11 13 mph 1018.2mb 67f 66f
12:00 1ft 2s 11 13 mph 1018.8mb 67f 65f
11:00 1ft 3s 11
mph
1018.8mb 67f 65f
10:00 0.7ft 2s 11 13 mph 1019mb 66f 64f
9:00 0.7ft 2s 9
mph
1019.1mb 66f 64f
8:00 0.7ft 6s 7 9 mph 1019mb 65f 64f
7:00 0.7ft 6s 9 11 mph 1018.9mb 65f 63f
6:00 0.7ft 3s 9 11 mph 1018.6mb 65f 63f
5:00 0.7ft 3s 7 9 mph 1018.4mb 66f 64f
4:00 0.7ft 3s 9
mph
1018.5mb 65f 64f
3:00 0.7ft 3s 9 11 mph 1018.4mb 65f 64f
2:00 0.7ft 3s 9
mph
1018.4mb 66f 65f
1:00 0.3ft 2s 7 9 mph 1018.6mb 66f 65f
12:00 0.7ft 2s 7 9 mph 1018.6mb 67f 66f
mer. 07/20 11:00 0.3ft 4s 7 9 mph 1018.4mb 67f 67f
10:00 0.3ft 3s 9 11 mph 1018.4mb 67f 67f
9:00 0.3ft 4s 7
mph
1018.2mb 67f 67f
8:00 0.3ft 3s 7 9 mph 1018.5mb 67f 68f
7:00 0.3ft 2s 4 7 mph 1018.6mb 67f 68f
6:00 0.3ft 6s 2 4 mph 1019.2mb 68f 68f
5:00 0.3ft 3s 4 7 mph 1019.6mb 67f 67f
4:00 0.7ft 2s 2 4 mph 1019.9mb 67f 67f
3:00 0.7ft 2s 7 9 mph 1020.2mb 66f 66f
2:00 0.7ft 3s 9
mph
1020.5mb 65f 65f
1:00 0.7ft 3s 9 11 mph 1020.7mb 66f 64f
12:00 1ft 3s 9 11 mph 1020.8mb 65f 64f
11:00 0.7ft 2s 11 13 mph 1020.7mb 65f 64f
10:00 0.7ft 2s 9 11 mph 1020.4mb 65f 63f
9:00 0.7ft 2s 9 11 mph 1020.2mb 65f 63f
8:00 0.7ft 6s 9 11 mph 1019.8mb 65f 64f
7:00 0.3ft 4s 11 13 mph 1019.4mb 66f 64f